Time;durP1;ratioP1;P1;durP2;ratioP2;P2;SDS_P1;SDS_P2;PMS_P1;PMS_P2;Temp;Humidity;BMP_temperature;BMP_pressure;BME280_temperature;BME280_humidity;BME280_pressure;Samples;Min_cycle;Max_cycle;Signal;HPM_P1;HPM_P2
2022/03/02 00:01:54;;;;;;;;;45.75;35.25;;;;;10.14;46.23;101813.63;5079980;28;45417;-81
2022/03/02 00:04:20;;;;;;;;;48.50;36.50;;;;;10.12;46.35;101818.41;5080659;28;46142;-81
2022/03/02 00:06:46;;;;;;;;;49.25;38.50;;;;;10.08;46.50;101820.66;5078300;28;45306;-81
2022/03/02 00:09:11;;;;;;;;;57.50;38.75;;;;;10.07;46.90;101822.56;5078688;28;45390;-81
2022/03/02 00:11:37;;;;;;;;;47.75;38.50;;;;;10.04;46.96;101820.19;5078630;28;45556;-81
2022/03/02 00:14:03;;;;;;;;;45.50;35.00;;;;;10.02;46.99;101815.91;5078644;28;45591;-80
2022/03/02 00:16:29;;;;;;;;;49.50;37.75;;;;;9.97;46.84;101807.34;5065502;28;45601;-80
2022/03/02 00:18:59;;;;;;;;;48.00;37.00;;;;;9.93;47.31;101806.03;5062126;28;45673;-80
2022/03/02 00:21:25;;;;;;;;;49.25;36.00;;;;;9.87;47.01;101788.41;5061246;28;45372;-81
2022/03/02 00:23:51;;;;;;;;;49.00;38.00;;;;;9.84;47.49;101808.78;5061874;28;45740;-80
2022/03/02 00:26:17;;;;;;;;;47.75;37.75;;;;;9.79;47.56;101802.13;5061278;28;45399;-81
2022/03/02 00:28:43;;;;;;;;;44.75;38.50;;;;;9.74;47.66;101790.84;5044069;28;45403;-83
2022/03/02 00:31:08;;;;;;;;;52.50;40.00;;;;;9.73;47.92;101795.50;5059060;28;45392;-76
2022/03/02 00:33:34;;;;;;;;;40.75;33.50;;;;;9.64;47.64;101786.44;5040257;28;47189;-81
2022/03/02 00:36:00;;;;;;;;;44.75;36.25;;;;;9.66;47.77;101789.84;5061976;28;45412;-78
2022/03/02 00:38:26;;;;;;;;;56.00;42.00;;;;;9.64;47.91;101791.94;5062675;28;45402;-81
2022/03/02 00:40:51;;;;;;;;;45.50;34.25;;;;;9.64;47.63;101797.41;5058135;28;46153;-80
2022/03/02 00:43:17;;;;;;;;;48.00;39.75;;;;;9.60;47.79;101795.19;5060164;28;46090;-75
2022/03/02 00:45:43;;;;;;;;;49.00;37.00;;;;;9.57;47.91;101795.56;5058255;28;45389;-77
2022/03/02 00:48:09;;;;;;;;;47.75;40.25;;;;;9.59;48.05;101794.31;5057601;28;45456;-75
2022/03/02 00:50:35;;;;;;;;;45.00;37.50;;;;;9.56;48.06;101793.84;5057739;28;45430;-76
2022/03/02 00:53:02;;;;;;;;;51.50;40.00;;;;;9.58;48.16;101798.13;5057864;28;46067;-75
2022/03/02 00:55:28;;;;;;;;;50.75;38.00;;;;;9.52;48.14;101790.59;5060543;28;45450;-81
2022/03/02 00:57:54;;;;;;;;;52.00;37.75;;;;;9.49;48.18;101793.66;5062047;28;45384;-82
2022/03/02 01:00:20;;;;;;;;;48.25;38.75;;;;;9.44;48.26;101782.41;5058582;28;45431;-77
2022/03/02 01:02:48;;;;;;;;;50.50;39.75;;;;;9.48;48.51;101792.00;5057689;28;45423;-76
2022/03/02 01:05:14;;;;;;;;;47.25;40.25;;;;;9.46;48.51;101796.75;5039218;28;45406;-76
2022/03/02 01:07:40;;;;;;;;;48.25;40.00;;;;;9.44;48.42;101785.16;5057423;28;45759;-76
2022/03/02 01:10:07;;;;;;;;;50.50;39.25;;;;;9.45;48.09;101786.88;5058345;28;45386;-75
2022/03/02 01:12:33;;;;;;;;;51.25;42.50;;;;;9.44;48.42;101790.63;5042968;28;47294;-80
2022/03/02 01:14:59;;;;;;;;;57.25;43.75;;;;;9.41;48.49;101786.34;5043158;28;45472;-81
2022/03/02 01:17:25;;;;;;;;;50.25;39.00;;;;;9.40;48.08;101778.31;5065296;28;45477;-80
2022/03/02 01:19:51;;;;;;;;;51.25;38.50;;;;;9.40;48.24;101783.78;5043809;28;46123;-80
2022/03/02 01:22:17;;;;;;;;;52.50;42.25;;;;;9.42;48.18;101784.47;5061971;28;45731;-80
2022/03/02 01:24:43;;;;;;;;;42.00;36.25;;;;;9.38;48.10;101777.63;5060928;28;45426;-79
2022/03/02 01:27:09;;;;;;;;;56.25;42.50;;;;;9.38;48.22;101775.75;5061822;28;45399;-79
2022/03/02 01:29:35;;;;;;;;;56.00;40.00;;;;;9.36;48.26;101778.66;5059670;28;45383;-78
2022/03/02 01:32:05;;;;;;;;;53.50;43.50;;;;;9.36;48.30;101784.13;5061273;28;45448;-80
2022/03/02 01:34:30;;;;;;;;;54.00;40.00;;;;;9.35;48.36;101781.56;5061372;28;45344;-79
2022/03/02 01:36:56;;;;;;;;;52.50;41.00;;;;;9.36;48.08;101783.28;5060143;28;45410;-79
2022/03/02 01:39:21;;;;;;;;;52.50;39.00;;;;;9.32;48.25;101760.88;5042707;28;46217;-78
2022/03/02 01:41:47;;;;;;;;;51.00;41.25;;;;;9.35;48.37;101773.34;5061109;28;45735;-80
2022/03/02 01:44:12;;;;;;;;;45.50;36.25;;;;;9.31;48.42;101769.25;5060946;28;45516;-78
2022/03/02 01:46:38;;;;;;;;;53.25;41.75;;;;;9.25;47.62;101754.41;5061593;28;45647;-81
2022/03/02 01:49:04;;;;;;;;;49.75;38.50;;;;;9.25;48.36;101764.47;5042808;28;46780;-80
2022/03/02 01:51:30;;;;;;;;;47.75;38.25;;;;;9.27;48.00;101763.28;5061564;28;45976;-81
2022/03/02 01:53:55;;;;;;;;;46.50;37.75;;;;;9.24;48.26;101749.13;5060938;28;45399;-81
2022/03/02 01:56:21;;;;;;;;;47.50;37.75;;;;;9.24;49.22;101754.59;5062604;28;45347;-79
2022/03/02 01:58:47;;;;;;;;;49.25;39.00;;;;;9.23;48.47;101753.72;5060349;28;45362;-81
2022/03/02 02:01:13;;;;;;;;;49.50;40.75;;;;;9.24;48.75;101751.84;5042437;28;45476;-80
2022/03/02 02:03:39;;;;;;;;;50.00;38.25;;;;;9.23;48.27;101747.41;5042439;28;45526;-81
2022/03/02 02:06:05;;;;;;;;;51.50;41.50;;;;;9.21;48.45;101749.44;5061006;28;45309;-81
2022/03/02 02:08:31;;;;;;;;;49.00;37.00;;;;;9.14;48.60;101732.88;5042790;28;45450;-82
2022/03/02 02:11:01;;;;;;;;;48.50;37.50;;;;;9.20;48.55;101740.38;5060745;28;45495;-80
2022/03/02 02:13:30;;;;;;;;;39.75;35.50;;;;;9.15;48.49;101740.91;5060254;28;45542;-81
2022/03/02 02:15:56;;;;;;;;;47.00;35.50;;;;;9.16;48.71;101730.81;5060083;28;45414;-80
2022/03/02 02:18:21;;;;;;;;;50.00;38.25;;;;;9.15;48.99;101726.38;5059637;28;45669;-79
2022/03/02 02:20:47;;;;;;;;;47.50;38.25;;;;;9.16;48.50;101736.28;5059904;28;45648;-79
2022/03/02 02:23:13;;;;;;;;;45.00;36.75;;;;;9.15;48.51;101732.69;5060085;28;45329;-79
2022/03/02 02:25:39;;;;;;;;;42.00;34.75;;;;;9.17;48.50;101735.25;5045622;28;45399;-80
2022/03/02 02:28:06;;;;;;;;;48.50;38.00;;;;;9.16;48.44;101720.72;5079728;28;45391;-78
2022/03/02 02:30:32;;;;;;;;;49.50;38.75;;;;;9.07;48.37;101701.75;5080576;28;46888;-79
2022/03/02 02:32:58;;;;;;;;;49.50;38.75;;;;;9.13;48.39;101717.47;5062039;28;45449;-80
2022/03/02 02:35:25;;;;;;;;;49.50;37.00;;;;;9.11;48.25;101714.06;5080598;28;45754;-80
2022/03/02 02:37:50;;;;;;;;;52.25;39.75;;;;;9.07;48.43;101704.50;5079566;28;45441;-79
2022/03/02 02:40:19;;;;;;;;;44.25;35.00;;;;;9.08;48.56;101704.31;5076627;28;46644;-78
2022/03/02 02:42:46;;;;;;;;;47.25;34.75;;;;;9.06;47.96;101700.06;5059655;28;45403;-80
2022/03/02 02:45:20;;;;;;;;;52.75;39.00;;;;;9.07;48.38;101702.63;5058410;28;45388;-79
2022/03/02 02:47:49;;;;;;;;;51.75;41.75;;;;;9.01;48.25;101698.72;5040616;28;45419;-75
2022/03/02 02:50:27;;;;;;;;;50.00;41.00;;;;;8.99;48.43;101681.59;5056012;28;46158;-75
2022/03/02 02:52:53;;;;;;;;;48.75;34.50;;;;;9.01;48.59;101686.88;5055904;28;45445;-74
2022/03/02 02:55:21;;;;;;;;;53.00;38.75;;;;;8.99;48.41;101681.59;5055566;28;45324;-75
2022/03/02 02:57:47;;;;;;;;;42.50;34.25;;;;;8.95;48.39;101671.19;5055657;28;45389;-74
2022/03/02 03:00:16;;;;;;;;;40.00;34.00;;;;;8.90;48.56;101671.72;5037358;28;47040;-75
2022/03/02 03:02:44;;;;;;;;;46.75;36.25;;;;;8.90;48.56;101663.50;5055346;28;45482;-76
2022/03/02 03:05:16;;;;;;;;;45.00;34.75;;;;;8.88;48.58;101665.56;5053859;28;45642;-75
2022/03/02 03:07:45;;;;;;;;;49.75;37.25;;;;;8.86;48.77;101667.59;5055222;28;45395;-75
2022/03/02 03:10:12;;;;;;;;;34.50;31.25;;;;;8.80;48.84;101651.91;5036633;28;47039;-74
2022/03/02 03:12:38;;;;;;;;;45.00;36.25;;;;;8.81;48.97;101659.09;5037295;28;45704;-75
2022/03/02 03:15:06;;;;;;;;;44.50;36.00;;;;;8.69;48.76;101644.91;5068675;28;45370;-75
2022/03/02 03:17:32;;;;;;;;;48.00;36.50;;;;;8.76;48.86;101653.31;5057422;28;45916;-75
2022/03/02 03:19:58;;;;;;;;;41.50;34.25;;;;;8.71;48.85;101659.25;5076927;28;46635;-79
2022/03/02 03:22:24;;;;;;;;;50.25;39.75;;;;;8.72;48.57;101657.41;5080643;28;45944;-79
2022/03/02 03:24:50;;;;;;;;;48.75;38.00;;;;;8.68;48.94;101658.78;5061662;28;45419;-79
2022/03/02 03:27:15;;;;;;;;;50.00;38.75;;;;;8.71;48.96;101663.88;5061993;28;45672;-79
2022/03/02 03:29:41;;;;;;;;;51.25;37.75;;;;;8.69;49.13;101663.22;5058680;28;45367;-79
2022/03/02 03:32:07;;;;;;;;;48.00;37.00;;;;;8.64;49.03;101659.13;5058497;28;45348;-80
2022/03/02 03:34:33;;;;;;;;;47.00;37.00;;;;;8.67;49.21;101657.94;5056083;28;45521;-76
2022/03/02 03:36:59;;;;;;;;;52.25;40.00;;;;;8.69;49.32;101655.03;5036362;28;46981;-76
2022/03/02 03:39:24;;;;;;;;;46.75;38.50;;;;;8.69;49.24;101661.34;5054918;28;46122;-74
2022/03/02 03:41:50;;;;;;;;;48.25;36.75;;;;;8.71;49.06;101658.44;5055105;28;45982;-74
2022/03/02 03:44:15;;;;;;;;;42.75;35.25;;;;;8.64;49.36;101650.91;5055137;28;45362;-75
2022/03/02 03:46:41;;;;;;;;;48.00;38.25;;;;;8.63;48.73;101651.09;5054833;28;45580;-75
2022/03/02 03:49:06;;;;;;;;;53.00;40.00;;;;;8.60;49.56;101645.97;5054730;28;45489;-75
2022/03/02 03:51:33;;;;;;;;;49.50;37.75;;;;;8.60;48.77;101648.72;5054359;28;45457;-75
2022/03/02 03:53:59;;;;;;;;;46.75;35.75;;;;;8.55;49.41;101643.75;5036173;28;45721;-75
2022/03/02 03:56:25;;;;;;;;;46.50;37.25;;;;;8.50;49.77;101637.94;5019741;28;46153;-75
2022/03/02 03:58:50;;;;;;;;;54.25;39.25;;;;;8.51;49.84;101638.81;5054999;28;45474;-74
2022/03/02 04:01:16;;;;;;;;;40.00;32.50;;;;;8.43;49.54;101635.03;5054843;28;45740;-75
2022/03/02 04:03:41;;;;;;;;;49.25;37.00;;;;;8.42;49.96;101637.94;5054595;28;45513;-75
2022/03/02 04:06:06;;;;;;;;;51.25;39.00;;;;;8.38;49.99;101645.63;5054562;28;45363;-75
2022/03/02 04:08:32;;;;;;;;;37.75;32.00;;;;;8.34;50.33;101651.59;5054501;28;46090;-76
2022/03/02 04:10:59;;;;;;;;;47.50;39.00;;;;;8.30;50.53;101640.16;5054708;28;45586;-74
2022/03/02 04:13:25;;;;;;;;;49.50;37.75;;;;;8.27;50.35;101635.88;5055218;28;45744;-74
2022/03/02 04:15:50;;;;;;;;;45.25;36.00;;;;;8.27;50.70;101635.88;5054008;28;45483;-74
2022/03/02 04:18:16;;;;;;;;;46.50;37.75;;;;;8.28;50.70;101637.59;5054126;28;45392;-74
2022/03/02 04:20:41;;;;;;;;;43.75;34.00;;;;;8.28;50.29;101634.03;5054297;28;45416;-73
2022/03/02 04:23:08;;;;;;;;;49.25;39.75;;;;;8.22;50.60;101632.84;5054607;28;45764;-74
2022/03/02 04:25:34;;;;;;;;;44.25;33.50;;;;;8.26;50.35;101636.06;5054230;28;45424;-74
2022/03/02 04:27:59;;;;;;;;;51.25;39.25;;;;;8.24;50.42;101633.50;5054263;28;45379;-78
2022/03/02 04:30:27;;;;;;;;;52.75;41.50;;;;;8.23;50.37;101625.47;5053792;28;45917;-74
2022/03/02 04:32:53;;;;;;;;;55.25;42.25;;;;;8.19;50.65;101626.84;5054520;28;45770;-74
2022/03/02 04:35:18;;;;;;;;;48.75;41.50;;;;;8.12;50.89;101623.94;5054551;28;45372;-75
2022/03/02 04:37:44;;;;;;;;;50.50;41.25;;;;;8.11;51.06;101619.50;5036345;28;48052;-75
2022/03/02 04:40:12;;;;;;;;;49.00;39.00;;;;;8.09;51.03;101622.41;5054250;28;45638;-75
2022/03/02 04:42:38;;;;;;;;;54.75;41.50;;;;;8.09;50.78;101624.28;5054442;28;45545;-76
2022/03/02 04:45:04;;;;;;;;;47.50;37.50;;;;;8.08;50.77;101615.25;5054484;28;45533;-75
2022/03/02 04:47:30;;;;;;;;;56.00;43.75;;;;;8.06;51.44;101608.25;5054280;28;46161;-74
2022/03/02 04:49:55;;;;;;;;;48.00;37.75;;;;;8.02;50.97;101604.16;5054025;28;45427;-75
2022/03/02 04:52:21;;;;;;;;;48.25;37.75;;;;;8.04;51.44;101610.28;5054679;28;45309;-74
2022/03/02 04:57:31;;;;;;;;;49.50;38.50;;;;;8.01;51.05;101606.03;5053946;28;45422;-74
2022/03/02 04:59:56;;;;;;;;;47.75;37.50;;;;;7.97;51.33;101596.47;5053557;28;45473;-74
2022/03/02 05:02:22;;;;;;;;;41.25;37.50;;;;;8.03;51.23;101601.25;5053543;28;45565;-76
2022/03/02 05:04:49;;;;;;;;;52.50;41.00;;;;;8.05;51.20;101610.09;5036613;28;46469;-74
2022/03/02 05:07:34;;;;;;;;;56.75;43.75;;;;;8.04;50.71;101607.53;5059220;28;46559;-76
2022/03/02 05:10:00;;;;;;;;;51.25;39.00;;;;;8.04;51.11;101602.09;5044893;28;45642;-74
2022/03/02 05:12:25;;;;;;;;;48.25;37.50;;;;;8.06;50.15;101611.81;5040986;28;45797;-75
2022/03/02 05:14:51;;;;;;;;;52.75;39.75;;;;;8.07;50.58;101607.22;5040244;28;46690;-74
2022/03/02 05:17:16;;;;;;;;;54.75;44.00;;;;;8.04;50.10;101602.09;5039535;28;45561;-76
2022/03/02 05:19:42;;;;;;;;;48.75;37.75;;;;;8.03;50.69;101597.66;5057338;28;45830;-74
2022/03/02 05:22:07;;;;;;;;;43.00;36.00;;;;;8.05;50.17;101601.06;5057626;28;45312;-75
2022/03/02 05:24:33;;;;;;;;;47.25;39.75;;;;;8.03;49.89;101597.66;5057526;28;45403;-76
2022/03/02 05:26:58;;;;;;;;;50.50;38.75;;;;;8.03;50.69;101594.94;5057138;28;45347;-76
2022/03/02 05:29:24;;;;;;;;;49.00;39.50;;;;;8.02;50.04;101588.59;5057093;28;45353;-74
2022/03/02 05:31:49;;;;;;;;;47.50;38.00;;;;;7.99;50.22;101582.63;5057224;28;45342;-76
2022/03/02 05:34:15;;;;;;;;;55.25;41.75;;;;;7.98;50.59;101586.38;5057036;28;45709;-76
2022/03/02 05:36:40;;;;;;;;;49.50;39.00;;;;;8.00;50.68;101587.09;5056735;28;45716;-76
2022/03/02 05:39:06;;;;;;;;;45.25;37.50;;;;;7.97;49.81;101581.97;5057120;28;45655;-75
2022/03/02 05:41:33;;;;;;;;;53.75;38.75;;;;;7.94;50.75;101581.25;5056854;28;45704;-75
2022/03/02 05:43:58;;;;;;;;;54.75;43.00;;;;;7.94;50.99;101585.88;5056229;28;45557;-75
2022/03/02 05:46:24;;;;;;;;;52.00;40.00;;;;;7.92;50.47;101577.84;5056407;28;46099;-75
2022/03/02 05:48:52;;;;;;;;;50.50;40.50;;;;;7.90;50.28;101585.38;5056071;28;45389;-75
2022/03/02 05:51:18;;;;;;;;;56.00;42.25;;;;;7.89;50.54;101580.06;5056502;28;45422;-75
2022/03/02 05:53:43;;;;;;;;;49.50;40.00;;;;;7.87;50.79;101574.78;5056479;28;45435;-73
2022/03/02 05:56:09;;;;;;;;;52.75;41.75;;;;;7.86;51.05;101578.53;5056020;28;45373;-75
2022/03/02 05:58:34;;;;;;;;;53.00;38.75;;;;;7.80;51.07;101564.69;5056467;28;45660;-75
2022/03/02 06:01:00;;;;;;;;;55.50;38.50;;;;;7.85;50.99;101579.56;5055334;28;45719;-74
2022/03/02 06:03:26;;;;;;;;;40.50;36.50;;;;;7.85;50.74;101571.38;5054427;28;45737;-78
2022/03/02 06:05:51;;;;;;;;;47.50;37.00;;;;;7.86;51.09;101572.22;5056678;28;46444;-80
2022/03/02 06:08:17;;;;;;;;;48.25;40.00;;;;;7.80;50.64;101565.56;5039491;28;45303;-79
2022/03/02 06:10:43;;;;;;;;;48.75;39.25;;;;;7.82;50.80;101570.88;5060327;28;45378;-79
2022/03/02 06:13:09;;;;;;;;;49.75;39.25;;;;;7.82;50.65;101571.72;5041129;28;45976;-79
2022/03/02 06:15:35;;;;;;;;;51.75;39.75;;;;;7.80;51.26;101579.22;5055490;28;47034;-74
2022/03/02 06:18:03;;;;;;;;;50.75;40.25;;;;;7.87;50.71;101579.38;5058859;28;45497;-78
2022/03/02 06:20:29;;;;;;;;;51.00;39.50;;;;;7.87;50.78;101576.66;5057579;28;45373;-74
2022/03/02 06:22:55;;;;;;;;;54.50;39.50;;;;;7.85;51.41;101576.00;5041637;28;45424;-78
2022/03/02 06:25:21;;;;;;;;;51.50;37.75;;;;;7.82;50.77;101566.25;5059357;28;46538;-77
2022/03/02 06:27:47;;;;;;;;;52.75;40.75;;;;;7.79;50.64;101569.31;5076514;28;45355;-77
2022/03/02 06:30:13;;;;;;;;;49.00;39.00;;;;;7.80;51.77;101573.78;5080727;28;45362;-79
2022/03/02 06:32:38;;;;;;;;;52.00;39.25;;;;;7.82;51.57;101574.44;5062145;28;45049;-80
2022/03/02 06:35:06;;;;;;;;;49.50;36.00;;;;;7.79;50.63;101566.59;5076671;28;46219;-72
2022/03/02 06:37:33;;;;;;;;;54.25;41.75;;;;;7.85;51.35;101576.84;5077010;28;45543;-81
2022/03/02 06:39:59;;;;;;;;;48.25;38.50;;;;;7.81;51.38;101572.72;5079724;28;45514;-82
2022/03/02 06:42:42;;;;;;;;;47.50;37.75;;;;;7.90;51.35;101579.03;5079150;28;45422;-79
2022/03/02 06:45:17;;;;;;;;;53.75;41.50;;;;;7.88;51.15;101587.41;5078462;28;46715;-74
2022/03/02 06:47:53;;;;;;;;;58.25;42.00;;;;;7.86;50.79;101583.13;5075273;28;45450;-73
2022/03/02 06:50:25;;;;;;;;;45.25;36.25;;;;;7.86;51.22;101584.00;5057647;28;45469;-73
2022/03/02 06:52:54;;;;;;;;;53.25;42.25;;;;;7.87;51.20;101585.69;5075777;28;45481;-75
2022/03/02 06:55:20;;;;;;;;;48.25;37.75;;;;;7.84;51.20;101585.19;5057375;28;47008;-74
2022/03/02 06:57:52;;;;;;;;;52.50;39.50;;;;;7.86;51.04;101589.47;5075286;28;45397;-74
2022/03/02 07:00:18;;;;;;;;;53.50;41.25;;;;;7.91;51.34;101591.69;5056952;28;45481;-73
2022/03/02 07:03:06;;;;;;;;;53.50;41.50;;;;;7.88;50.99;101584.69;5074934;28;45285;-74
2022/03/02 07:05:32;;;;;;;;;53.50;40.00;;;;;7.80;50.35;101581.97;5057411;28;46952;-74
2022/03/02 07:08:00;;;;;;;;;56.00;42.00;;;;;7.82;50.63;101584.53;5075526;28;45414;-77
2022/03/02 07:10:27;;;;;;;;;48.00;35.00;;;;;7.82;49.85;101585.38;5075620;28;45444;-76
2022/03/02 07:12:53;;;;;;;;;49.75;38.25;;;;;7.83;50.81;101591.66;5059120;28;46808;-74
2022/03/02 07:15:19;;;;;;;;;37.75;31.75;;;;;7.84;50.42;101586.03;5058132;28;47480;-74
2022/03/02 07:17:44;;;;;;;;;51.50;39.00;;;;;7.88;50.64;101592.03;5057303;28;45800;-77
2022/03/02 07:20:11;;;;;;;;;48.50;40.75;;;;;7.83;49.85;101584.34;5076354;28;45711;-77
2022/03/02 07:22:43;;;;;;;;;45.00;36.00;;;;;7.89;50.62;101591.84;5075722;28;45383;-75
2022/03/02 07:25:30;;;;;;;;;42.75;34.00;;;;;7.89;50.71;101594.59;5057244;28;47636;-77
2022/03/02 07:27:57;;;;;;;;;43.75;35.00;;;;;7.90;50.36;101590.84;5043623;28;45501;-77
2022/03/02 07:30:23;;;;;;;;;43.50;34.00;;;;;7.95;50.06;101596.63;5075941;28;45375;-74
2022/03/02 07:32:56;;;;;;;;;41.25;33.75;;;;;8.01;50.04;101599.69;5075377;28;45466;-75
2022/03/02 07:35:23;;;;;;;;;49.50;37.50;;;;;7.98;50.52;101580.91;5058945;28;47152;-79
2022/03/02 07:37:48;;;;;;;;;48.25;40.00;;;;;8.12;50.12;101593.91;5059961;28;45768;-75
2022/03/02 07:40:14;;;;;;;;;45.25;35.00;;;;;8.15;50.74;101588.09;5077107;28;45530;-81
2022/03/02 07:42:41;;;;;;;;;47.00;38.00;;;;;8.28;50.13;101587.56;5080141;28;45434;-79
2022/03/02 07:45:07;;;;;;;;;50.75;38.75;;;;;8.39;49.48;101583.63;5079093;28;46170;-81
2022/03/02 07:47:33;;;;;;;;;52.25;38.75;;;;;8.50;49.50;101586.00;5062253;28;45472;-80
2022/03/02 07:49:58;;;;;;;;;43.25;35.75;;;;;8.57;49.34;101576.06;5081324;28;45304;-80
2022/03/02 07:52:29;;;;;;;;;41.25;36.75;;;;;8.68;48.92;101577.56;5078590;28;45363;-79
2022/03/02 07:55:09;;;;;;;;;42.75;32.75;;;;;8.72;48.81;101556.22;5079126;28;46084;-80
2022/03/02 07:57:37;;;;;;;;;43.25;36.00;;;;;8.89;48.43;101577.00;5078643;28;45331;-78
2022/03/02 08:00:04;;;;;;;;;46.75;37.75;;;;;8.98;48.28;101578.69;5076606;28;45447;-76
2022/03/02 08:02:31;;;;;;;;;41.25;36.00;;;;;9.07;47.88;101574.03;5055530;28;46467;-76
2022/03/02 08:04:56;;;;;;;;;47.50;38.75;;;;;9.13;47.47;101576.03;5077280;28;46680;-79
2022/03/02 08:07:22;;;;;;;;;50.75;39.75;;;;;9.22;47.37;101574.13;5078713;28;45848;-79
2022/03/02 08:09:51;;;;;;;;;43.00;35.75;;;;;9.32;46.91;101582.94;5077319;28;45465;-76
2022/03/02 08:12:20;;;;;;;;;43.75;35.75;;;;;9.37;46.75;101582.38;5073770;28;45815;-74
2022/03/02 08:14:55;;;;;;;;;47.75;36.00;;;;;9.39;46.91;101580.34;5082231;28;46388;-80
2022/03/02 08:17:21;;;;;;;;;49.50;39.50;;;;;9.47;46.14;101582.16;5083412;28;45430;-81
2022/03/02 08:19:47;;;;;;;;;46.25;37.75;;;;;9.54;46.09;101583.16;5059569;28;45822;-78
2022/03/02 08:22:21;;;;;;;;;53.00;41.00;;;;;9.59;45.98;101582.59;5059255;28;46551;-79
2022/03/02 08:25:11;;;;;;;;;47.75;37.75;;;;;9.63;46.27;101592.19;5077402;28;46339;-78
2022/03/02 08:27:43;;;;;;;;;49.25;38.50;;;;;9.67;45.72;101577.06;5077242;28;45913;-79
2022/03/02 08:30:11;;;;;;;;;47.25;38.50;;;;;9.71;45.13;101579.28;5077471;28;45358;-80
2022/03/02 08:32:40;;;;;;;;;51.25;37.25;;;;;9.79;45.09;101578.34;5077511;28;45748;-80
2022/03/02 08:35:06;;;;;;;;;50.50;37.50;;;;;9.80;44.60;101574.56;5076909;28;46527;-78
2022/03/02 08:37:32;;;;;;;;;43.75;35.50;;;;;9.86;45.10;101576.56;5076740;28;45402;-79
2022/03/02 08:39:59;;;;;;;;;54.75;38.50;;;;;9.93;45.29;101579.44;5061916;28;45817;-80
2022/03/02 08:42:24;;;;;;;;;45.25;37.00;;;;;9.97;44.29;101571.69;5060945;28;45335;-79
2022/03/02 08:44:50;;;;;;;;;46.25;38.25;;;;;9.99;44.38;101575.97;5042035;28;45653;-79
2022/03/02 08:47:15;;;;;;;;;48.25;37.00;;;;;10.00;43.80;101588.63;5060464;28;45405;-81
2022/03/02 08:49:41;;;;;;;;;44.75;35.75;;;;;10.05;43.77;101575.22;5042437;28;45392;-79
2022/03/02 08:52:08;;;;;;;;;48.25;37.75;;;;;10.16;44.05;101593.09;5060307;28;45417;-80
2022/03/02 08:54:43;;;;;;;;;47.50;37.50;;;;;10.25;43.59;101586.53;5060637;28;46209;-79
2022/03/02 08:57:10;;;;;;;;;50.00;37.25;;;;;10.30;43.25;101583.22;5042174;28;45805;-79
2022/03/02 08:59:38;;;;;;;;;48.50;37.50;;;;;10.35;43.67;101580.78;5041090;28;45404;-80
2022/03/02 09:02:06;;;;;;;;;48.25;37.25;;;;;10.47;43.66;101572.97;5060304;28;45719;-79
2022/03/02 09:04:35;;;;;;;;;48.75;40.75;;;;;10.53;42.97;101572.19;5059752;28;46441;-80
2022/03/02 09:07:03;;;;;;;;;49.75;39.00;;;;;10.61;42.38;101565.78;5041949;28;45749;-79
2022/03/02 09:09:29;;;;;;;;;46.50;34.50;;;;;10.82;42.53;101575.13;5043607;28;45670;-80
2022/03/02 09:11:56;;;;;;;;;49.00;38.75;;;;;10.93;42.11;101555.47;5061063;28;45342;-79
2022/03/02 09:14:23;;;;;;;;;48.75;37.00;;;;;11.08;41.74;101575.50;5060325;28;45739;-79
2022/03/02 09:16:49;;;;;;;;;46.50;37.25;;;;;11.28;40.93;101562.00;5059958;28;45400;-79
2022/03/02 09:19:15;;;;;;;;;48.50;39.75;;;;;11.43;41.24;101555.63;5058985;28;45395;-78
2022/03/02 09:21:43;;;;;;;;;47.75;37.50;;;;;11.51;41.04;101552.72;5060132;28;45751;-78
2022/03/02 09:24:10;;;;;;;;;48.25;38.00;;;;;11.68;39.85;101546.97;5059471;28;45391;-80
2022/03/02 09:26:38;;;;;;;;;49.75;38.25;;;;;11.79;40.01;101544.56;5070738;28;45437;-79
2022/03/02 09:29:06;;;;;;;;;48.75;39.00;;;;;11.82;39.85;101526.81;5080010;28;45786;-79
2022/03/02 09:31:34;;;;;;;;;44.25;35.00;;;;;12.08;39.39;101547.38;5080892;28;45484;-79
2022/03/02 09:34:03;;;;;;;;;41.00;36.00;;;;;12.31;39.09;101539.72;5061206;28;47707;-79
2022/03/02 09:36:33;;;;;;;;;50.75;39.75;;;;;12.48;38.62;101540.25;5061469;28;45438;-80
2022/03/02 09:38:58;;;;;;;;;46.00;36.75;;;;;12.65;38.56;101531.66;5079839;28;45480;-80
2022/03/02 09:41:29;;;;;;;;;48.75;38.75;;;;;12.92;37.94;101545.56;5079718;28;45527;-79
2022/03/02 09:43:58;;;;;;;;;53.25;40.25;;;;;13.08;37.35;101542.44;5061384;28;47045;-80
2022/03/02 09:46:33;;;;;;;;;47.25;36.50;;;;;13.21;37.08;101547.16;5080003;28;45340;-80
2022/03/02 09:49:06;;;;;;;;;46.50;36.50;;;;;13.28;36.96;101548.06;5079996;28;45454;-81
2022/03/02 09:51:33;;;;;;;;;45.75;37.25;;;;;13.45;36.32;101551.28;5078673;28;45734;-80
2022/03/02 09:54:02;;;;;;;;;50.50;36.75;;;;;13.45;36.56;101545.78;5061351;28;47347;-79
2022/03/02 09:56:35;;;;;;;;;43.50;36.00;;;;;13.54;36.77;101541.78;5062812;28;45641;-79
2022/03/02 09:59:04;;;;;;;;;47.25;35.75;;;;;13.74;35.92;101546.47;5062386;28;45313;-75
2022/03/02 10:01:33;;;;;;;;;48.67;35.00;;;;;13.81;35.27;101552.84;5058062;28;45525;-75
2022/03/02 10:04:13;;;;;;;;;41.00;34.75;;;;;13.84;35.56;101555.16;5075706;28;45473;-74
2022/03/02 10:06:42;;;;;;;;;48.50;38.00;;;;;13.90;35.84;101550.72;5076063;28;45763;-75
2022/03/02 10:09:09;;;;;;;;;47.67;35.00;;;;;14.04;35.59;101541.41;5076226;28;45801;-76
2022/03/02 10:11:37;;;;;;;;;44.50;35.25;;;;;14.03;35.22;101539.69;5076090;28;45867;-74
2022/03/02 10:14:02;;;;;;;;;46.33;35.00;;;;;14.10;34.92;101539.69;5070972;28;46264;-73
2022/03/02 10:16:29;;;;;;;;;42.67;37.33;;;;;14.19;34.93;101541.19;5055418;28;45679;-75
2022/03/02 10:18:57;;;;;;;;;42.33;34.67;;;;;14.13;34.20;101528.22;5055674;28;45433;-74
2022/03/02 10:21:40;;;;;;;;;50.00;36.50;;;;;14.15;35.20;101536.28;5055411;28;45510;-74
2022/03/02 10:24:13;;;;;;;;;45.00;33.33;;;;;14.20;34.89;101523.56;5038162;28;46293;-79
2022/03/02 10:26:50;;;;;;;;;45.33;37.00;;;;;14.35;34.58;101523.31;5058519;28;45488;-81
2022/03/02 10:29:33;;;;;;;;;44.33;35.67;;;;;14.34;34.25;101529.06;5058312;28;45344;-80
2022/03/02 10:32:11;;;;;;;;;47.00;35.33;;;;;14.42;34.72;101520.56;5058614;28;45549;-78
2022/03/02 10:34:50;;;;;;;;;40.67;32.33;;;;;14.50;34.23;101505.69;5058637;28;45771;-79
2022/03/02 10:37:31;;;;;;;;;47.00;37.67;;;;;14.71;34.49;101518.38;5040677;28;45775;-79
2022/03/02 10:40:07;;;;;;;;;51.50;38.25;;;;;14.81;34.32;101514.09;5058988;28;45320;-78
2022/03/02 10:42:51;;;;;;;;;44.00;36.33;;;;;14.88;33.30;101513.22;5058300;28;45467;-79
2022/03/02 10:45:26;;;;;;;;;46.33;37.33;;;;;15.00;33.35;101501.28;5039639;28;46116;-74
2022/03/02 10:48:27;;;;;;;;;48.67;39.00;;;;;15.15;33.08;101503.75;5055907;28;45813;-74
2022/03/02 10:50:56;;;;;;;;;37.33;34.00;;;;;15.49;33.59;101506.31;5023408;28;45361;-74
2022/03/02 10:53:30;;;;;;;;;47.33;36.67;;;;;15.81;32.68;101500.81;5055539;28;45532;-74
2022/03/02 10:55:57;;;;;;;;;46.33;37.33;;;;;16.02;31.96;101500.38;5055674;28;45770;-80
2022/03/02 10:58:28;;;;;;;;;37.33;32.33;;;;;16.02;31.74;101494.84;5056965;28;45441;-74
2022/03/02 11:00:54;;;;;;;;;50.33;37.33;;;;;16.11;32.41;101489.00;5041690;28;45413;-79
2022/03/02 11:03:20;;;;;;;;;43.67;36.67;;;;;16.18;31.91;101495.34;5057844;28;45795;-79
2022/03/02 11:05:46;;;;;;;;;47.00;41.00;;;;;16.29;31.74;101485.44;5058761;28;45403;-76
2022/03/02 11:08:11;;;;;;;;;48.00;38.33;;;;;16.18;31.62;101485.13;5057788;28;45754;-80
2022/03/02 11:10:43;;;;;;;;;40.67;38.00;;;;;16.31;31.57;101475.00;5040744;28;45568;-81
2022/03/02 11:13:13;;;;;;;;;44.67;38.67;;;;;16.53;30.76;101472.63;5023148;28;45381;-80
2022/03/02 11:15:57;;;;;;;;;49.67;39.00;;;;;16.67;31.14;101476.91;5039236;28;45275;-75
2022/03/02 11:18:37;;;;;;;;;41.33;33.00;;;;;16.63;30.93;101478.47;5057496;28;45364;-78
2022/03/02 11:21:06;;;;;;;;;53.33;41.33;;;;;16.53;31.43;101467.09;5055606;28;45550;-79